sensor_id;sensor_type;location;lat;lon;timestamp;P1;durP1;ratioP1;P2;durP2;ratioP2
3625;SDS011;1827;50.534;8.316;2023-06-24T06:13:54;18.97;;;6.57;;
3625;SDS011;1827;50.534;8.316;2023-06-24T06:16:20;20.90;;;6.43;;
3625;SDS011;1827;50.534;8.316;2023-06-24T06:18:58;25.00;;;7.20;;
3625;SDS011;1827;50.534;8.316;2023-06-24T06:21:27;18.90;;;6.70;;
3625;SDS011;1827;50.534;8.316;2023-06-24T06:23:53;19.90;;;6.60;;
3625;SDS011;1827;50.534;8.316;2023-06-24T06:26:19;19.50;;;6.40;;
3625;SDS011;1827;50.534;8.316;2023-06-24T06:28:50;20.40;;;6.20;;
3625;SDS011;1827;50.534;8.316;2023-06-24T06:31:18;22.20;;;6.27;;
3625;SDS011;1827;50.534;8.316;2023-06-24T06:33:54;19.07;;;5.10;;
3625;SDS011;1827;50.534;8.316;2023-06-24T06:36:28;17.90;;;5.30;;
3625;SDS011;1827;50.534;8.316;2023-06-24T06:39:06;17.43;;;5.70;;
3625;SDS011;1827;50.534;8.316;2023-06-24T06:41:35;17.67;;;6.03;;
3625;SDS011;1827;50.534;8.316;2023-06-24T06:44:14;18.77;;;5.90;;
3625;SDS011;1827;50.534;8.316;2023-06-24T06:46:44;20.10;;;6.33;;
3625;SDS011;1827;50.534;8.316;2023-06-24T06:49:10;17.90;;;5.90;;
3625;SDS011;1827;50.534;8.316;2023-06-24T06:51:36;19.63;;;5.23;;
3625;SDS011;1827;50.534;8.316;2023-06-24T06:54:02;18.83;;;6.20;;
3625;SDS011;1827;50.534;8.316;2023-06-24T06:56:28;16.70;;;5.33;;
3625;SDS011;1827;50.534;8.316;2023-06-24T06:58:55;17.67;;;5.30;;
3625;SDS011;1827;50.534;8.316;2023-06-24T07:01:27;17.60;;;5.50;;
3625;SDS011;1827;50.534;8.316;2023-06-24T07:03:55;21.27;;;5.50;;
3625;SDS011;1827;50.534;8.316;2023-06-24T07:06:23;20.07;;;6.20;;
3625;SDS011;1827;50.534;8.316;2023-06-24T07:08:52;20.20;;;5.93;;
3625;SDS011;1827;50.534;8.316;2023-06-24T07:11:20;21.40;;;5.87;;
3625;SDS011;1827;50.534;8.316;2023-06-24T07:13:52;16.53;;;5.03;;
3625;SDS011;1827;50.534;8.316;2023-06-24T07:16:19;18.20;;;5.33;;
3625;SDS011;1827;50.534;8.316;2023-06-24T07:18:48;20.50;;;5.70;;
3625;SDS011;1827;50.534;8.316;2023-06-24T07:21:25;16.00;;;4.47;;
3625;SDS011;1827;50.534;8.316;2023-06-24T07:24:05;16.47;;;5.00;;
3625;SDS011;1827;50.534;8.316;2023-06-24T07:26:33;14.83;;;4.00;;
3625;SDS011;1827;50.534;8.316;2023-06-24T07:28:59;16.40;;;4.27;;
3625;SDS011;1827;50.534;8.316;2023-06-24T07:31:25;15.20;;;4.47;;
3625;SDS011;1827;50.534;8.316;2023-06-24T07:33:52;16.83;;;4.07;;
3625;SDS011;1827;50.534;8.316;2023-06-24T07:36:17;14.57;;;4.13;;
3625;SDS011;1827;50.534;8.316;2023-06-24T07:38:44;17.23;;;4.87;;
3625;SDS011;1827;50.534;8.316;2023-06-24T07:41:10;18.63;;;4.73;;
3625;SDS011;1827;50.534;8.316;2023-06-24T07:43:35;18.07;;;5.00;;
3625;SDS011;1827;50.534;8.316;2023-06-24T07:46:04;16.90;;;4.50;;
3625;SDS011;1827;50.534;8.316;2023-06-24T07:48:43;15.57;;;4.70;;
3625;SDS011;1827;50.534;8.316;2023-06-24T07:51:13;16.50;;;3.70;;
3625;SDS011;1827;50.534;8.316;2023-06-24T07:53:46;14.97;;;4.20;;
3625;SDS011;1827;50.534;8.316;2023-06-24T07:56:15;14.70;;;4.07;;
3625;SDS011;1827;50.534;8.316;2023-06-24T07:58:41;13.93;;;3.53;;
3625;SDS011;1827;50.534;8.316;2023-06-24T08:01:10;15.10;;;4.40;;
3625;SDS011;1827;50.534;8.316;2023-06-24T08:03:36;16.27;;;4.33;;
3625;SDS011;1827;50.534;8.316;2023-06-24T08:06:05;17.83;;;4.10;;
3625;SDS011;1827;50.534;8.316;2023-06-24T08:08:34;15.83;;;3.73;;
3625;SDS011;1827;50.534;8.316;2023-06-24T08:11:03;20.50;;;3.93;;
3625;SDS011;1827;50.534;8.316;2023-06-24T08:13:28;20.10;;;4.77;;
3625;SDS011;1827;50.534;8.316;2023-06-24T08:15:59;15.67;;;4.23;;
3625;SDS011;1827;50.534;8.316;2023-06-24T08:18:25;18.47;;;4.10;;
3625;SDS011;1827;50.534;8.316;2023-06-24T08:20:54;15.17;;;4.13;;
3625;SDS011;1827;50.534;8.316;2023-06-24T08:23:22;14.47;;;3.50;;
3625;SDS011;1827;50.534;8.316;2023-06-24T08:25:55;15.60;;;3.80;;
3625;SDS011;1827;50.534;8.316;2023-06-24T08:34:28;17.97;;;4.27;;
3625;SDS011;1827;50.534;8.316;2023-06-24T08:37:15;18.53;;;4.03;;
3625;SDS011;1827;50.534;8.316;2023-06-24T08:39:41;14.83;;;3.50;;
3625;SDS011;1827;50.534;8.316;2023-06-24T08:42:11;16.60;;;4.10;;
3625;SDS011;1827;50.534;8.316;2023-06-24T08:44:37;15.13;;;3.70;;
3625;SDS011;1827;50.534;8.316;2023-06-24T08:47:09;15.07;;;4.00;;
3625;SDS011;1827;50.534;8.316;2023-06-24T08:49:38;16.53;;;4.43;;
3625;SDS011;1827;50.534;8.316;2023-06-24T08:52:15;18.97;;;4.90;;
3625;SDS011;1827;50.534;8.316;2023-06-24T08:54:44;16.60;;;4.40;;
3625;SDS011;1827;50.534;8.316;2023-06-24T08:57:17;17.63;;;4.30;;
3625;SDS011;1827;50.534;8.316;2023-06-24T08:59:43;14.93;;;4.00;;
3625;SDS011;1827;50.534;8.316;2023-06-24T09:02:11;15.27;;;3.80;;
3625;SDS011;1827;50.534;8.316;2023-06-24T09:04:39;15.37;;;4.30;;
3625;SDS011;1827;50.534;8.316;2023-06-24T09:07:09;16.73;;;3.90;;
3625;SDS011;1827;50.534;8.316;2023-06-24T09:09:41;15.47;;;3.40;;
3625;SDS011;1827;50.534;8.316;2023-06-24T09:12:13;16.30;;;4.10;;
3625;SDS011;1827;50.534;8.316;2023-06-24T09:14:47;13.70;;;3.87;;
3625;SDS011;1827;50.534;8.316;2023-06-24T09:17:17;17.03;;;3.80;;
3625;SDS011;1827;50.534;8.316;2023-06-24T09:19:46;14.30;;;3.97;;
3625;SDS011;1827;50.534;8.316;2023-06-24T09:22:19;13.90;;;3.80;;
3625;SDS011;1827;50.534;8.316;2023-06-24T09:25:00;15.37;;;3.80;;
3625;SDS011;1827;50.534;8.316;2023-06-24T09:27:30;12.60;;;3.10;;
3625;SDS011;1827;50.534;8.316;2023-06-24T09:30:18;14.37;;;3.80;;
3625;SDS011;1827;50.534;8.316;2023-06-24T09:32:53;12.97;;;3.10;;
3625;SDS011;1827;50.534;8.316;2023-06-24T09:35:42;13.70;;;3.77;;
3625;SDS011;1827;50.534;8.316;2023-06-24T09:38:07;13.60;;;3.80;;
3625;SDS011;1827;50.534;8.316;2023-06-24T09:40:42;14.90;;;3.77;;
3625;SDS011;1827;50.534;8.316;2023-06-24T09:43:26;23.50;;;3.90;;
3625;SDS011;1827;50.534;8.316;2023-06-24T09:46:02;16.40;;;3.97;;
3625;SDS011;1827;50.534;8.316;2023-06-24T09:48:35;13.20;;;3.70;;
3625;SDS011;1827;50.534;8.316;2023-06-24T09:51:02;18.47;;;3.97;;
3625;SDS011;1827;50.534;8.316;2023-06-24T09:53:32;15.47;;;3.93;;
3625;SDS011;1827;50.534;8.316;2023-06-24T09:56:03;12.90;;;3.00;;
3625;SDS011;1827;50.534;8.316;2023-06-24T09:58:36;15.60;;;2.97;;
3625;SDS011;1827;50.534;8.316;2023-06-24T10:01:35;14.23;;;3.40;;
3625;SDS011;1827;50.534;8.316;2023-06-24T10:04:06;12.63;;;2.97;;
3625;SDS011;1827;50.534;8.316;2023-06-24T10:06:38;14.30;;;3.23;;
3625;SDS011;1827;50.534;8.316;2023-06-24T10:09:07;15.07;;;3.80;;
3625;SDS011;1827;50.534;8.316;2023-06-24T10:11:35;13.70;;;3.50;;
3625;SDS011;1827;50.534;8.316;2023-06-24T10:14:09;12.77;;;3.30;;
3625;SDS011;1827;50.534;8.316;2023-06-24T10:16:36;14.20;;;3.10;;
3625;SDS011;1827;50.534;8.316;2023-06-24T10:19:03;14.70;;;3.60;;
3625;SDS011;1827;50.534;8.316;2023-06-24T10:21:44;15.70;;;3.37;;
3625;SDS011;1827;50.534;8.316;2023-06-24T10:27:19;13.20;;;3.40;;
3625;SDS011;1827;50.534;8.316;2023-06-24T10:29:52;21.30;;;3.60;;
3625;SDS011;1827;50.534;8.316;2023-06-24T10:32:21;15.60;;;3.90;;
3625;SDS011;1827;50.534;8.316;2023-06-24T10:34:54;14.43;;;3.43;;
3625;SDS011;1827;50.534;8.316;2023-06-24T10:37:22;12.77;;;3.17;;
3625;SDS011;1827;50.534;8.316;2023-06-24T10:39:53;14.73;;;3.90;;
3625;SDS011;1827;50.534;8.316;2023-06-24T10:42:25;14.03;;;4.10;;
3625;SDS011;1827;50.534;8.316;2023-06-24T10:47:38;18.87;;;3.60;;
3625;SDS011;1827;50.534;8.316;2023-06-24T10:50:15;14.73;;;3.53;;
3625;SDS011;1827;50.534;8.316;2023-06-24T10:52:49;20.97;;;3.90;;
3625;SDS011;1827;50.534;8.316;2023-06-24T10:55:21;15.20;;;3.30;;
3625;SDS011;1827;50.534;8.316;2023-06-24T10:57:50;15.03;;;3.37;;
3625;SDS011;1827;50.534;8.316;2023-06-24T11:00:18;16.20;;;3.30;;
3625;SDS011;1827;50.534;8.316;2023-06-24T11:02:46;13.07;;;3.03;;
3625;SDS011;1827;50.534;8.316;2023-06-24T11:05:12;15.70;;;3.90;;
3625;SDS011;1827;50.534;8.316;2023-06-24T11:07:40;14.33;;;2.70;;
3625;SDS011;1827;50.534;8.316;2023-06-24T11:10:13;13.03;;;3.20;;
3625;SDS011;1827;50.534;8.316;2023-06-24T11:12:40;13.17;;;3.13;;
3625;SDS011;1827;50.534;8.316;2023-06-24T11:15:08;13.80;;;2.90;;
3625;SDS011;1827;50.534;8.316;2023-06-24T11:17:36;13.57;;;3.20;;
3625;SDS011;1827;50.534;8.316;2023-06-24T11:20:08;18.73;;;3.30;;
3625;SDS011;1827;50.534;8.316;2023-06-24T11:22:36;12.50;;;3.13;;
3625;SDS011;1827;50.534;8.316;2023-06-24T11:25:14;15.00;;;3.53;;
3625;SDS011;1827;50.534;8.316;2023-06-24T11:27:45;16.53;;;3.70;;
3625;SDS011;1827;50.534;8.316;2023-06-24T11:30:13;15.70;;;3.40;;
3625;SDS011;1827;50.534;8.316;2023-06-24T11:32:40;13.80;;;3.20;;
3625;SDS011;1827;50.534;8.316;2023-06-24T11:35:10;15.60;;;3.30;;
3625;SDS011;1827;50.534;8.316;2023-06-24T11:37:42;12.10;;;3.03;;
3625;SDS011;1827;50.534;8.316;2023-06-24T11:40:20;12.93;;;3.07;;
3625;SDS011;1827;50.534;8.316;2023-06-24T11:42:50;14.90;;;3.13;;
3625;SDS011;1827;50.534;8.316;2023-06-24T11:45:20;14.10;;;3.27;;
3625;SDS011;1827;50.534;8.316;2023-06-24T11:47:46;15.70;;;3.30;;
3625;SDS011;1827;50.534;8.316;2023-06-24T11:50:16;13.37;;;3.30;;
3625;SDS011;1827;50.534;8.316;2023-06-24T11:55:12;15.23;;;3.43;;
3625;SDS011;1827;50.534;8.316;2023-06-24T11:57:57;17.80;;;3.50;;
3625;SDS011;1827;50.534;8.316;2023-06-24T12:00:36;15.00;;;3.23;;
3625;SDS011;1827;50.534;8.316;2023-06-24T12:03:08;13.30;;;3.73;;
3625;SDS011;1827;50.534;8.316;2023-06-24T12:05:35;14.30;;;3.30;;
3625;SDS011;1827;50.534;8.316;2023-06-24T12:08:02;14.20;;;3.43;;
3625;SDS011;1827;50.534;8.316;2023-06-24T12:10:32;12.20;;;2.90;;
3625;SDS011;1827;50.534;8.316;2023-06-24T12:13:00;12.00;;;3.10;;
3625;SDS011;1827;50.534;8.316;2023-06-24T12:15:27;12.47;;;2.93;;
3625;SDS011;1827;50.534;8.316;2023-06-24T12:17:57;13.53;;;3.33;;
3625;SDS011;1827;50.534;8.316;2023-06-24T12:20:24;12.27;;;2.70;;
3625;SDS011;1827;50.534;8.316;2023-06-24T12:22:53;12.63;;;3.53;;
3625;SDS011;1827;50.534;8.316;2023-06-24T12:25:19;13.80;;;3.83;;
3625;SDS011;1827;50.534;8.316;2023-06-24T12:27:50;14.50;;;3.90;;
3625;SDS011;1827;50.534;8.316;2023-06-24T12:30:18;19.90;;;4.13;;
3625;SDS011;1827;50.534;8.316;2023-06-24T12:32:46;15.10;;;3.83;;
3625;SDS011;1827;50.534;8.316;2023-06-24T12:35:14;17.87;;;3.80;;
3625;SDS011;1827;50.534;8.316;2023-06-24T12:37:43;14.93;;;3.90;;
3625;SDS011;1827;50.534;8.316;2023-06-24T12:40:22;15.10;;;3.90;;
3625;SDS011;1827;50.534;8.316;2023-06-24T12:42:59;16.80;;;4.03;;
3625;SDS011;1827;50.534;8.316;2023-06-24T12:45:38;14.10;;;3.70;;
3625;SDS011;1827;50.534;8.316;2023-06-24T12:48:34;16.40;;;3.50;;
3625;SDS011;1827;50.534;8.316;2023-06-24T12:51:25;13.63;;;3.40;;
3625;SDS011;1827;50.534;8.316;2023-06-24T12:53:57;15.57;;;3.93;;
3625;SDS011;1827;50.534;8.316;2023-06-24T12:56:32;14.27;;;3.60;;
3625;SDS011;1827;50.534;8.316;2023-06-24T12:59:05;14.33;;;3.87;;
3625;SDS011;1827;50.534;8.316;2023-06-24T13:01:37;14.97;;;4.07;;
3625;SDS011;1827;50.534;8.316;2023-06-24T13:04:12;13.00;;;3.37;;
3625;SDS011;1827;50.534;8.316;2023-06-24T13:06:57;14.20;;;4.07;;
3625;SDS011;1827;50.534;8.316;2023-06-24T13:09:35;13.67;;;3.40;;
3625;SDS011;1827;50.534;8.316;2023-06-24T13:12:04;17.90;;;3.40;;
3625;SDS011;1827;50.534;8.316;2023-06-24T13:14:35;13.80;;;3.70;;
3625;SDS011;1827;50.534;8.316;2023-06-24T13:17:14;18.10;;;3.43;;
3625;SDS011;1827;50.534;8.316;2023-06-24T13:19:48;13.67;;;3.27;;
3625;SDS011;1827;50.534;8.316;2023-06-24T13:22:47;20.37;;;4.17;;
3625;SDS011;1827;50.534;8.316;2023-06-24T13:25:16;13.90;;;3.63;;
3625;SDS011;1827;50.534;8.316;2023-06-24T13:28:01;15.43;;;4.00;;
3625;SDS011;1827;50.534;8.316;2023-06-24T13:30:32;15.40;;;4.00;;
3625;SDS011;1827;50.534;8.316;2023-06-24T13:33:01;15.77;;;4.10;;
3625;SDS011;1827;50.534;8.316;2023-06-24T13:35:32;14.00;;;3.83;;
3625;SDS011;1827;50.534;8.316;2023-06-24T13:38:20;15.13;;;4.13;;
3625;SDS011;1827;50.534;8.316;2023-06-24T13:40:52;15.37;;;3.67;;
3625;SDS011;1827;50.534;8.316;2023-06-24T13:43:42;14.67;;;3.80;;
3625;SDS011;1827;50.534;8.316;2023-06-24T13:46:15;15.43;;;4.00;;
3625;SDS011;1827;50.534;8.316;2023-06-24T13:48:43;16.00;;;4.23;;
3625;SDS011;1827;50.534;8.316;2023-06-24T13:51:23;16.30;;;3.90;;
3625;SDS011;1827;50.534;8.316;2023-06-24T13:53:55;15.03;;;4.00;;
3625;SDS011;1827;50.534;8.316;2023-06-24T13:56:24;15.47;;;3.73;;
3625;SDS011;1827;50.534;8.316;2023-06-24T13:58:51;15.43;;;4.10;;
3625;SDS011;1827;50.534;8.316;2023-06-24T14:01:28;16.37;;;3.97;;
3625;SDS011;1827;50.534;8.316;2023-06-24T14:03:57;15.60;;;3.80;;
3625;SDS011;1827;50.534;8.316;2023-06-24T14:06:29;14.43;;;3.43;;
3625;SDS011;1827;50.534;8.316;2023-06-24T14:08:55;13.83;;;3.90;;
3625;SDS011;1827;50.534;8.316;2023-06-24T14:11:33;13.60;;;3.63;;
3625;SDS011;1827;50.534;8.316;2023-06-24T14:14:05;14.03;;;3.47;;
3625;SDS011;1827;50.534;8.316;2023-06-24T14:16:41;13.27;;;3.73;;
3625;SDS011;1827;50.534;8.316;2023-06-24T14:19:17;15.57;;;3.60;;
3625;SDS011;1827;50.534;8.316;2023-06-24T14:21:53;18.53;;;3.57;;
3625;SDS011;1827;50.534;8.316;2023-06-24T14:24:25;12.63;;;2.97;;
3625;SDS011;1827;50.534;8.316;2023-06-24T14:26:54;16.80;;;3.50;;
3625;SDS011;1827;50.534;8.316;2023-06-24T14:29:20;14.23;;;3.40;;
3625;SDS011;1827;50.534;8.316;2023-06-24T14:31:48;16.43;;;4.07;;
3625;SDS011;1827;50.534;8.316;2023-06-24T14:34:16;14.80;;;3.83;;
3625;SDS011;1827;50.534;8.316;2023-06-24T14:36:43;13.73;;;3.60;;
3625;SDS011;1827;50.534;8.316;2023-06-24T14:39:13;16.37;;;3.40;;
3625;SDS011;1827;50.534;8.316;2023-06-24T14:41:41;15.23;;;3.53;;
3625;SDS011;1827;50.534;8.316;2023-06-24T14:44:07;12.20;;;3.20;;
3625;SDS011;1827;50.534;8.316;2023-06-24T14:46:33;12.30;;;3.30;;
3625;SDS011;1827;50.534;8.316;2023-06-24T14:48:59;13.47;;;3.70;;
3625;SDS011;1827;50.534;8.316;2023-06-24T14:51:26;17.07;;;3.40;;
3625;SDS011;1827;50.534;8.316;2023-06-24T14:53:52;15.73;;;3.60;;
3625;SDS011;1827;50.534;8.316;2023-06-24T14:56:18;13.00;;;3.50;;
3625;SDS011;1827;50.534;8.316;2023-06-24T14:58:44;15.50;;;3.40;;
3625;SDS011;1827;50.534;8.316;2023-06-24T15:01:14;13.67;;;2.90;;
3625;SDS011;1827;50.534;8.316;2023-06-24T15:03:40;13.10;;;3.50;;
3625;SDS011;1827;50.534;8.316;2023-06-24T15:06:05;13.20;;;3.50;;
3625;SDS011;1827;50.534;8.316;2023-06-24T15:08:35;16.43;;;3.60;;
3625;SDS011;1827;50.534;8.316;2023-06-24T15:11:01;11.77;;;2.90;;
3625;SDS011;1827;50.534;8.316;2023-06-24T15:13:29;13.17;;;3.43;;
3625;SDS011;1827;50.534;8.316;2023-06-24T15:15:57;13.20;;;3.13;;
3625;SDS011;1827;50.534;8.316;2023-06-24T15:18:24;13.97;;;3.40;;
3625;SDS011;1827;50.534;8.316;2023-06-24T15:20:54;13.27;;;3.37;;
3625;SDS011;1827;50.534;8.316;2023-06-24T15:23:19;13.53;;;3.40;;
3625;SDS011;1827;50.534;8.316;2023-06-24T15:25:45;15.53;;;3.40;;
3625;SDS011;1827;50.534;8.316;2023-06-24T15:28:17;13.77;;;3.23;;
3625;SDS011;1827;50.534;8.316;2023-06-24T15:30:46;14.13;;;3.70;;
3625;SDS011;1827;50.534;8.316;2023-06-24T15:33:13;12.37;;;3.30;;
3625;SDS011;1827;50.534;8.316;2023-06-24T15:35:39;16.80;;;3.60;;
3625;SDS011;1827;50.534;8.316;2023-06-24T15:38:05;16.93;;;3.70;;
3625;SDS011;1827;50.534;8.316;2023-06-24T15:40:31;12.93;;;3.47;;
3625;SDS011;1827;50.534;8.316;2023-06-24T15:42:57;12.73;;;3.17;;
3625;SDS011;1827;50.534;8.316;2023-06-24T15:45:26;12.07;;;3.30;;
3625;SDS011;1827;50.534;8.316;2023-06-24T15:47:52;15.50;;;3.40;;
3625;SDS011;1827;50.534;8.316;2023-06-24T15:50:18;13.33;;;3.87;;
3625;SDS011;1827;50.534;8.316;2023-06-24T15:52:48;12.60;;;3.33;;
3625;SDS011;1827;50.534;8.316;2023-06-24T15:55:14;13.37;;;3.80;;
3625;SDS011;1827;50.534;8.316;2023-06-24T15:57:40;13.83;;;3.67;;
3625;SDS011;1827;50.534;8.316;2023-06-24T16:00:06;14.63;;;3.77;;
3625;SDS011;1827;50.534;8.316;2023-06-24T16:02:32;17.33;;;4.07;;
3625;SDS011;1827;50.534;8.316;2023-06-24T16:04:59;13.93;;;4.10;;
3625;SDS011;1827;50.534;8.316;2023-06-24T16:07:35;14.50;;;3.97;;
3625;SDS011;1827;50.534;8.316;2023-06-24T16:10:04;16.00;;;4.40;;
3625;SDS011;1827;50.534;8.316;2023-06-24T16:12:36;14.20;;;4.00;;
3625;SDS011;1827;50.534;8.316;2023-06-24T16:15:02;22.23;;;4.53;;
3625;SDS011;1827;50.534;8.316;2023-06-24T16:17:31;16.53;;;4.20;;
3625;SDS011;1827;50.534;8.316;2023-06-24T16:20:02;16.30;;;3.90;;
3625;SDS011;1827;50.534;8.316;2023-06-24T16:22:32;14.03;;;4.10;;
3625;SDS011;1827;50.534;8.316;2023-06-24T16:24:57;16.50;;;4.00;;
3625;SDS011;1827;50.534;8.316;2023-06-24T16:27:23;14.57;;;3.87;;
3625;SDS011;1827;50.534;8.316;2023-06-24T16:29:49;15.53;;;4.10;;
3625;SDS011;1827;50.534;8.316;2023-06-24T16:32:21;14.47;;;4.37;;
3625;SDS011;1827;50.534;8.316;2023-06-24T16:34:47;14.80;;;4.20;;
3625;SDS011;1827;50.534;8.316;2023-06-24T16:37:16;14.43;;;4.00;;
3625;SDS011;1827;50.534;8.316;2023-06-24T16:39:43;17.83;;;4.53;;
3625;SDS011;1827;50.534;8.316;2023-06-24T16:42:09;20.90;;;4.17;;
3625;SDS011;1827;50.534;8.316;2023-06-24T16:44:35;14.00;;;3.80;;
3625;SDS011;1827;50.534;8.316;2023-06-24T16:47:03;15.40;;;3.90;;
3625;SDS011;1827;50.534;8.316;2023-06-24T16:49:30;15.20;;;4.37;;
3625;SDS011;1827;50.534;8.316;2023-06-24T16:51:56;13.70;;;3.70;;
3625;SDS011;1827;50.534;8.316;2023-06-24T16:54:23;14.77;;;3.90;;
3625;SDS011;1827;50.534;8.316;2023-06-24T16:56:55;14.73;;;3.90;;
3625;SDS011;1827;50.534;8.316;2023-06-24T16:59:21;14.40;;;4.00;;
3625;SDS011;1827;50.534;8.316;2023-06-24T17:01:47;16.70;;;3.67;;
3625;SDS011;1827;50.534;8.316;2023-06-24T17:04:16;15.33;;;4.13;;
3625;SDS011;1827;50.534;8.316;2023-06-24T17:06:44;15.00;;;4.60;;
3625;SDS011;1827;50.534;8.316;2023-06-24T17:09:12;16.27;;;4.27;;
3625;SDS011;1827;50.534;8.316;2023-06-24T17:11:41;13.97;;;3.60;;
3625;SDS011;1827;50.534;8.316;2023-06-24T17:14:07;15.20;;;4.43;;
3625;SDS011;1827;50.534;8.316;2023-06-24T17:16:35;15.37;;;4.13;;
3625;SDS011;1827;50.534;8.316;2023-06-24T17:19:01;16.00;;;4.27;;
3625;SDS011;1827;50.534;8.316;2023-06-24T17:21:31;15.33;;;4.50;;
3625;SDS011;1827;50.534;8.316;2023-06-24T17:23:57;17.57;;;4.30;;
3625;SDS011;1827;50.534;8.316;2023-06-24T17:26:23;15.30;;;4.30;;
3625;SDS011;1827;50.534;8.316;2023-06-24T17:28:56;15.40;;;4.37;;
3625;SDS011;1827;50.534;8.316;2023-06-24T17:31:23;14.23;;;3.90;;
3625;SDS011;1827;50.534;8.316;2023-06-24T17:33:52;15.10;;;4.27;;
3625;SDS011;1827;50.534;8.316;2023-06-24T17:36:18;15.63;;;4.07;;
3625;SDS011;1827;50.534;8.316;2023-06-24T17:38:49;18.07;;;4.73;;
3625;SDS011;1827;50.534;8.316;2023-06-24T17:41:15;16.20;;;4.87;;
3625;SDS011;1827;50.534;8.316;2023-06-24T17:43:43;16.10;;;4.70;;
3625;SDS011;1827;50.534;8.316;2023-06-24T17:46:09;17.07;;;5.50;;
3625;SDS011;1827;50.534;8.316;2023-06-24T17:48:37;17.17;;;4.83;;
3625;SDS011;1827;50.534;8.316;2023-06-24T17:51:03;17.17;;;4.50;;
3625;SDS011;1827;50.534;8.316;2023-06-24T17:53:31;16.43;;;4.47;;
3625;SDS011;1827;50.534;8.316;2023-06-24T17:56:03;16.90;;;4.47;;
3625;SDS011;1827;50.534;8.316;2023-06-24T17:58:32;17.87;;;4.50;;
3625;SDS011;1827;50.534;8.316;2023-06-24T18:01:01;19.27;;;6.00;;
3625;SDS011;1827;50.534;8.316;2023-06-24T18:03:29;18.33;;;5.70;;
3625;SDS011;1827;50.534;8.316;2023-06-24T18:06:01;16.13;;;4.70;;
3625;SDS011;1827;50.534;8.316;2023-06-24T18:08:29;16.90;;;4.77;;
3625;SDS011;1827;50.534;8.316;2023-06-24T18:11:00;16.47;;;4.60;;
3625;SDS011;1827;50.534;8.316;2023-06-24T18:13:26;16.20;;;4.73;;
3625;SDS011;1827;50.534;8.316;2023-06-24T18:15:53;17.07;;;5.00;;
3625;SDS011;1827;50.534;8.316;2023-06-24T18:18:22;17.77;;;4.83;;
3625;SDS011;1827;50.534;8.316;2023-06-24T18:20:53;17.87;;;4.63;;
3625;SDS011;1827;50.534;8.316;2023-06-24T18:23:19;16.17;;;4.60;;
3625;SDS011;1827;50.534;8.316;2023-06-24T18:25:48;19.57;;;4.67;;
3625;SDS011;1827;50.534;8.316;2023-06-24T18:28:17;16.63;;;5.20;;
3625;SDS011;1827;50.534;8.316;2023-06-24T18:30:43;17.47;;;4.80;;
3625;SDS011;1827;50.534;8.316;2023-06-24T18:33:11;19.63;;;5.00;;
3625;SDS011;1827;50.534;8.316;2023-06-24T18:35:38;16.50;;;4.77;;
3625;SDS011;1827;50.534;8.316;2023-06-24T18:38:04;20.17;;;5.40;;
3625;SDS011;1827;50.534;8.316;2023-06-24T18:40:34;16.70;;;4.40;;
3625;SDS011;1827;50.534;8.316;2023-06-24T18:43:02;16.23;;;4.40;;
3625;SDS011;1827;50.534;8.316;2023-06-24T18:45:30;17.83;;;5.20;;
3625;SDS011;1827;50.534;8.316;2023-06-24T18:48:02;22.10;;;5.20;;
3625;SDS011;1827;50.534;8.316;2023-06-24T18:50:28;17.43;;;5.13;;
3625;SDS011;1827;50.534;8.316;2023-06-24T18:52:53;19.60;;;4.60;;
3625;SDS011;1827;50.534;8.316;2023-06-24T18:55:19;19.90;;;5.13;;
3625;SDS011;1827;50.534;8.316;2023-06-24T18:57:45;17.97;;;4.70;;
3625;SDS011;1827;50.534;8.316;2023-06-24T19:00:12;18.07;;;5.03;;
3625;SDS011;1827;50.534;8.316;2023-06-24T19:02:38;19.43;;;5.43;;
3625;SDS011;1827;50.534;8.316;2023-06-24T19:05:04;16.77;;;5.30;;
3625;SDS011;1827;50.534;8.316;2023-06-24T19:07:30;19.27;;;5.67;;
3625;SDS011;1827;50.534;8.316;2023-06-24T19:09:59;17.33;;;5.40;;
3625;SDS011;1827;50.534;8.316;2023-06-24T19:12:29;19.80;;;5.70;;
3625;SDS011;1827;50.534;8.316;2023-06-24T19:14:57;18.33;;;5.70;;
3625;SDS011;1827;50.534;8.316;2023-06-24T19:17:23;21.07;;;6.27;;
3625;SDS011;1827;50.534;8.316;2023-06-24T19:19:52;18.17;;;5.97;;
3625;SDS011;1827;50.534;8.316;2023-06-24T19:22:18;19.20;;;5.90;;
3625;SDS011;1827;50.534;8.316;2023-06-24T19:24:43;25.57;;;6.60;;
3625;SDS011;1827;50.534;8.316;2023-06-24T19:27:12;18.43;;;6.07;;
3625;SDS011;1827;50.534;8.316;2023-06-24T19:29:39;17.87;;;5.90;;
3625;SDS011;1827;50.534;8.316;2023-06-24T19:32:10;20.27;;;6.40;;
3625;SDS011;1827;50.534;8.316;2023-06-24T19:34:38;19.40;;;6.10;;
3625;SDS011;1827;50.534;8.316;2023-06-24T19:37:06;21.13;;;6.10;;
3625;SDS011;1827;50.534;8.316;2023-06-24T19:39:34;19.70;;;6.43;;
3625;SDS011;1827;50.534;8.316;2023-06-24T19:42:00;20.60;;;6.23;;
3625;SDS011;1827;50.534;8.316;2023-06-24T19:44:26;19.23;;;6.40;;
3625;SDS011;1827;50.534;8.316;2023-06-24T19:46:52;20.80;;;6.67;;
3625;SDS011;1827;50.534;8.316;2023-06-24T19:49:22;20.73;;;6.40;;
3625;SDS011;1827;50.534;8.316;2023-06-24T19:51:48;20.40;;;6.27;;
3625;SDS011;1827;50.534;8.316;2023-06-24T19:54:14;18.73;;;6.50;;
3625;SDS011;1827;50.534;8.316;2023-06-24T19:56:43;19.03;;;6.40;;
3625;SDS011;1827;50.534;8.316;2023-06-24T19:59:15;18.97;;;6.20;;
3625;SDS011;1827;50.534;8.316;2023-06-24T20:01:41;19.97;;;7.03;;
3625;SDS011;1827;50.534;8.316;2023-06-24T20:04:10;20.87;;;7.47;;
3625;SDS011;1827;50.534;8.316;2023-06-24T20:06:35;19.90;;;7.10;;
3625;SDS011;1827;50.534;8.316;2023-06-24T20:09:03;20.97;;;6.70;;
3625;SDS011;1827;50.534;8.316;2023-06-24T20:11:31;21.10;;;8.20;;
3625;SDS011;1827;50.534;8.316;2023-06-24T20:13:57;19.20;;;6.93;;
3625;SDS011;1827;50.534;8.316;2023-06-24T20:16:24;19.83;;;7.50;;
3625;SDS011;1827;50.534;8.316;2023-06-24T20:18:52;23.90;;;7.67;;
3625;SDS011;1827;50.534;8.316;2023-06-24T20:21:21;20.40;;;7.60;;
3625;SDS011;1827;50.534;8.316;2023-06-24T20:23:47;21.07;;;7.00;;
3625;SDS011;1827;50.534;8.316;2023-06-24T20:26:15;21.57;;;7.47;;
3625;SDS011;1827;50.534;8.316;2023-06-24T20:28:42;21.20;;;7.20;;
3625;SDS011;1827;50.534;8.316;2023-06-24T20:31:08;22.37;;;7.10;;
3625;SDS011;1827;50.534;8.316;2023-06-24T20:33:33;20.60;;;7.70;;
3625;SDS011;1827;50.534;8.316;2023-06-24T20:35:59;23.63;;;7.50;;
3625;SDS011;1827;50.534;8.316;2023-06-24T20:38:25;32.73;;;8.47;;
3625;SDS011;1827;50.534;8.316;2023-06-24T20:40:51;26.93;;;7.67;;
3625;SDS011;1827;50.534;8.316;2023-06-24T20:43:20;25.80;;;8.53;;
3625;SDS011;1827;50.534;8.316;2023-06-24T20:45:50;27.13;;;7.93;;
3625;SDS011;1827;50.534;8.316;2023-06-24T20:48:17;21.03;;;7.70;;
3625;SDS011;1827;50.534;8.316;2023-06-24T20:50:43;25.70;;;7.77;;
3625;SDS011;1827;50.534;8.316;2023-06-24T20:53:09;26.67;;;8.07;;
3625;SDS011;1827;50.534;8.316;2023-06-24T20:55:35;21.97;;;7.87;;
3625;SDS011;1827;50.534;8.316;2023-06-24T20:58:02;24.53;;;8.17;;
3625;SDS011;1827;50.534;8.316;2023-06-24T21:00:31;21.50;;;8.20;;
3625;SDS011;1827;50.534;8.316;2023-06-24T21:02:57;26.23;;;8.10;;
3625;SDS011;1827;50.534;8.316;2023-06-24T21:05:23;22.27;;;8.33;;
3625;SDS011;1827;50.534;8.316;2023-06-24T21:07:48;23.70;;;8.40;;
3625;SDS011;1827;50.534;8.316;2023-06-24T21:10:16;21.07;;;7.70;;
3625;SDS011;1827;50.534;8.316;2023-06-24T21:12:41;21.50;;;8.40;;
3625;SDS011;1827;50.534;8.316;2023-06-24T21:15:07;20.30;;;7.50;;
3625;SDS011;1827;50.534;8.316;2023-06-24T21:17:34;22.27;;;7.83;;
3625;SDS011;1827;50.534;8.316;2023-06-24T21:20:00;22.50;;;7.90;;
3625;SDS011;1827;50.534;8.316;2023-06-24T21:22:26;21.63;;;8.00;;
3625;SDS011;1827;50.534;8.316;2023-06-24T21:24:52;19.70;;;7.20;;
3625;SDS011;1827;50.534;8.316;2023-06-24T21:27:17;25.67;;;7.60;;
3625;SDS011;1827;50.534;8.316;2023-06-24T21:29:43;22.90;;;8.27;;
3625;SDS011;1827;50.534;8.316;2023-06-24T21:32:09;24.87;;;8.50;;
3625;SDS011;1827;50.534;8.316;2023-06-24T21:34:35;26.17;;;9.10;;
3625;SDS011;1827;50.534;8.316;2023-06-24T21:37:01;23.23;;;9.07;;
3625;SDS011;1827;50.534;8.316;2023-06-24T21:39:27;22.63;;;8.80;;
3625;SDS011;1827;50.534;8.316;2023-06-24T21:41:52;23.03;;;8.70;;